sensor_id;sensor_type;location;lat;lon;timestamp;temperature;humidity
13606;DHT22;6874;52.084;5.090;2023-04-03T00:01:10;6.10;99.90
13606;DHT22;6874;52.084;5.090;2023-04-03T00:03:36;6.00;99.90
13606;DHT22;6874;52.084;5.090;2023-04-03T00:06:03;6.00;99.90
13606;DHT22;6874;52.084;5.090;2023-04-03T00:08:29;5.90;99.90
13606;DHT22;6874;52.084;5.090;2023-04-03T00:10:56;5.90;99.90
13606;DHT22;6874;52.084;5.090;2023-04-03T00:13:23;5.90;99.90
13606;DHT22;6874;52.084;5.090;2023-04-03T00:15:49;5.90;99.90
13606;DHT22;6874;52.084;5.090;2023-04-03T00:18:14;5.80;99.90
13606;DHT22;6874;52.084;5.090;2023-04-03T00:20:40;5.80;99.90
13606;DHT22;6874;52.084;5.090;2023-04-03T00:23:06;5.80;99.90
13606;DHT22;6874;52.084;5.090;2023-04-03T00:25:32;5.80;99.90
13606;DHT22;6874;52.084;5.090;2023-04-03T00:27:58;5.80;99.90
13606;DHT22;6874;52.084;5.090;2023-04-03T00:30:24;5.70;99.90
13606;DHT22;6874;52.084;5.090;2023-04-03T00:32:51;5.70;99.90
13606;DHT22;6874;52.084;5.090;2023-04-03T00:35:18;5.70;99.90
13606;DHT22;6874;52.084;5.090;2023-04-03T00:37:45;5.60;99.90
13606;DHT22;6874;52.084;5.090;2023-04-03T00:40:12;5.60;99.90
13606;DHT22;6874;52.084;5.090;2023-04-03T00:42:40;5.60;99.90
13606;DHT22;6874;52.084;5.090;2023-04-03T00:47:32;5.60;99.90
13606;DHT22;6874;52.084;5.090;2023-04-03T00:49:57;5.50;99.90
13606;DHT22;6874;52.084;5.090;2023-04-03T00:52:28;5.50;99.90
13606;DHT22;6874;52.084;5.090;2023-04-03T00:54:57;5.50;99.90
13606;DHT22;6874;52.084;5.090;2023-04-03T00:57:25;5.40;99.90
13606;DHT22;6874;52.084;5.090;2023-04-03T00:59:55;5.50;99.90
13606;DHT22;6874;52.084;5.090;2023-04-03T01:02:23;5.40;99.90
13606;DHT22;6874;52.084;5.090;2023-04-03T01:04:49;5.40;99.90
13606;DHT22;6874;52.084;5.090;2023-04-03T01:07:27;5.30;99.90
13606;DHT22;6874;52.084;5.090;2023-04-03T01:09:57;5.40;99.90
13606;DHT22;6874;52.084;5.090;2023-04-03T01:12:31;5.30;99.90
13606;DHT22;6874;52.084;5.090;2023-04-03T01:15:12;5.30;99.90
13606;DHT22;6874;52.084;5.090;2023-04-03T01:17:47;5.30;99.90
13606;DHT22;6874;52.084;5.090;2023-04-03T01:25:43;5.20;99.90
13606;DHT22;6874;52.084;5.090;2023-04-03T01:28:12;5.20;99.90
13606;DHT22;6874;52.084;5.090;2023-04-03T01:31:48;5.20;99.90
13606;DHT22;6874;52.084;5.090;2023-04-03T01:33:41;5.10;99.90
13606;DHT22;6874;52.084;5.090;2023-04-03T01:36:14;5.10;99.90
13606;DHT22;6874;52.084;5.090;2023-04-03T01:38:41;5.10;99.90
13606;DHT22;6874;52.084;5.090;2023-04-03T01:41:06;5.10;99.90
13606;DHT22;6874;52.084;5.090;2023-04-03T01:43:32;5.10;99.90
13606;DHT22;6874;52.084;5.090;2023-04-03T01:45:57;5.00;99.90
13606;DHT22;6874;52.084;5.090;2023-04-03T01:48:23;5.00;99.90
13606;DHT22;6874;52.084;5.090;2023-04-03T01:50:49;5.00;99.90
13606;DHT22;6874;52.084;5.090;2023-04-03T01:53:14;5.00;99.90
13606;DHT22;6874;52.084;5.090;2023-04-03T01:55:40;5.00;99.90
13606;DHT22;6874;52.084;5.090;2023-04-03T01:58:06;4.90;99.90
13606;DHT22;6874;52.084;5.090;2023-04-03T02:00:31;4.90;99.90
13606;DHT22;6874;52.084;5.090;2023-04-03T02:02:57;4.90;99.90
13606;DHT22;6874;52.084;5.090;2023-04-03T02:05:22;4.90;99.90
13606;DHT22;6874;52.084;5.090;2023-04-03T02:07:48;4.90;99.90
13606;DHT22;6874;52.084;5.090;2023-04-03T02:10:14;4.90;99.90
13606;DHT22;6874;52.084;5.090;2023-04-03T02:12:40;4.80;99.90
13606;DHT22;6874;52.084;5.090;2023-04-03T02:15:06;4.80;99.90
13606;DHT22;6874;52.084;5.090;2023-04-03T02:17:31;4.80;99.90
13606;DHT22;6874;52.084;5.090;2023-04-03T02:19:57;4.70;99.90
13606;DHT22;6874;52.084;5.090;2023-04-03T02:22:23;4.80;99.90
13606;DHT22;6874;52.084;5.090;2023-04-03T02:24:49;4.80;99.90
13606;DHT22;6874;52.084;5.090;2023-04-03T02:27:15;4.70;99.90
13606;DHT22;6874;52.084;5.090;2023-04-03T02:29:41;4.70;99.90
13606;DHT22;6874;52.084;5.090;2023-04-03T02:32:06;4.70;99.90
13606;DHT22;6874;52.084;5.090;2023-04-03T02:34:32;4.70;99.90
13606;DHT22;6874;52.084;5.090;2023-04-03T02:36:57;4.70;99.90
13606;DHT22;6874;52.084;5.090;2023-04-03T02:39:23;4.60;99.90
13606;DHT22;6874;52.084;5.090;2023-04-03T02:41:49;4.60;99.90
13606;DHT22;6874;52.084;5.090;2023-04-03T02:44:14;4.60;99.90
13606;DHT22;6874;52.084;5.090;2023-04-03T02:46:40;4.60;99.90
13606;DHT22;6874;52.084;5.090;2023-04-03T02:49:06;4.60;99.90
13606;DHT22;6874;52.084;5.090;2023-04-03T02:51:31;4.50;99.90
13606;DHT22;6874;52.084;5.090;2023-04-03T02:53:57;4.50;99.90
13606;DHT22;6874;52.084;5.090;2023-04-03T02:56:23;4.50;99.90
13606;DHT22;6874;52.084;5.090;2023-04-03T02:58:48;4.50;99.90
13606;DHT22;6874;52.084;5.090;2023-04-03T03:01:14;4.50;99.90
13606;DHT22;6874;52.084;5.090;2023-04-03T03:03:40;4.50;99.90
13606;DHT22;6874;52.084;5.090;2023-04-03T03:06:09;4.40;99.90
13606;DHT22;6874;52.084;5.090;2023-04-03T03:08:35;4.40;99.90
13606;DHT22;6874;52.084;5.090;2023-04-03T03:11:02;4.50;99.90
13606;DHT22;6874;52.084;5.090;2023-04-03T03:13:28;4.40;99.90
13606;DHT22;6874;52.084;5.090;2023-04-03T03:15:54;4.40;99.90
13606;DHT22;6874;52.084;5.090;2023-04-03T03:18:20;4.30;99.90
13606;DHT22;6874;52.084;5.090;2023-04-03T03:20:46;4.30;99.90
13606;DHT22;6874;52.084;5.090;2023-04-03T03:23:11;4.30;99.90
13606;DHT22;6874;52.084;5.090;2023-04-03T03:25:40;4.30;99.90
13606;DHT22;6874;52.084;5.090;2023-04-03T03:28:06;4.30;99.90
13606;DHT22;6874;52.084;5.090;2023-04-03T03:30:32;4.20;99.90
13606;DHT22;6874;52.084;5.090;2023-04-03T03:32:58;4.30;99.90
13606;DHT22;6874;52.084;5.090;2023-04-03T03:35:24;4.20;99.90
13606;DHT22;6874;52.084;5.090;2023-04-03T03:37:50;4.30;99.90
13606;DHT22;6874;52.084;5.090;2023-04-03T03:40:15;4.20;99.90
13606;DHT22;6874;52.084;5.090;2023-04-03T03:42:41;4.20;99.90
13606;DHT22;6874;52.084;5.090;2023-04-03T03:45:07;4.20;99.90
13606;DHT22;6874;52.084;5.090;2023-04-03T03:47:33;4.20;99.90
13606;DHT22;6874;52.084;5.090;2023-04-03T03:49:58;4.10;99.90
13606;DHT22;6874;52.084;5.090;2023-04-03T03:52:24;4.20;99.90
13606;DHT22;6874;52.084;5.090;2023-04-03T03:54:50;4.10;99.90
13606;DHT22;6874;52.084;5.090;2023-04-03T03:57:16;4.10;99.90
13606;DHT22;6874;52.084;5.090;2023-04-03T03:59:42;4.10;99.90
13606;DHT22;6874;52.084;5.090;2023-04-03T04:02:09;4.10;99.90
13606;DHT22;6874;52.084;5.090;2023-04-03T04:04:36;4.10;99.90
13606;DHT22;6874;52.084;5.090;2023-04-03T04:07:01;4.00;99.90
13606;DHT22;6874;52.084;5.090;2023-04-03T04:09:27;4.00;99.90
13606;DHT22;6874;52.084;5.090;2023-04-03T04:11:53;4.00;99.90
13606;DHT22;6874;52.084;5.090;2023-04-03T04:14:19;4.00;99.90
13606;DHT22;6874;52.084;5.090;2023-04-03T04:16:46;4.00;99.90
13606;DHT22;6874;52.084;5.090;2023-04-03T04:19:12;4.00;99.90
13606;DHT22;6874;52.084;5.090;2023-04-03T04:21:38;4.00;99.90
13606;DHT22;6874;52.084;5.090;2023-04-03T04:24:05;3.90;99.90
13606;DHT22;6874;52.084;5.090;2023-04-03T04:26:30;3.90;99.90
13606;DHT22;6874;52.084;5.090;2023-04-03T04:28:56;3.90;99.90
13606;DHT22;6874;52.084;5.090;2023-04-03T04:31:22;3.90;99.90
13606;DHT22;6874;52.084;5.090;2023-04-03T04:33:47;3.90;99.90
13606;DHT22;6874;52.084;5.090;2023-04-03T04:36:13;3.90;99.90
13606;DHT22;6874;52.084;5.090;2023-04-03T04:38:40;3.90;99.90
13606;DHT22;6874;52.084;5.090;2023-04-03T04:41:06;3.80;99.90
13606;DHT22;6874;52.084;5.090;2023-04-03T04:43:32;3.80;99.90
13606;DHT22;6874;52.084;5.090;2023-04-03T04:46:02;3.80;99.90
13606;DHT22;6874;52.084;5.090;2023-04-03T04:48:28;3.80;99.90
13606;DHT22;6874;52.084;5.090;2023-04-03T04:50:54;3.80;99.90
13606;DHT22;6874;52.084;5.090;2023-04-03T04:53:20;3.80;99.90
13606;DHT22;6874;52.084;5.090;2023-04-03T04:55:45;3.80;99.90
13606;DHT22;6874;52.084;5.090;2023-04-03T04:58:11;3.70;99.90
13606;DHT22;6874;52.084;5.090;2023-04-03T05:00:37;3.70;99.90
13606;DHT22;6874;52.084;5.090;2023-04-03T05:03:02;3.70;99.90
13606;DHT22;6874;52.084;5.090;2023-04-03T05:05:28;3.70;99.90
13606;DHT22;6874;52.084;5.090;2023-04-03T05:07:53;3.70;99.90
13606;DHT22;6874;52.084;5.090;2023-04-03T05:10:19;3.70;99.90
13606;DHT22;6874;52.084;5.090;2023-04-03T05:12:46;3.70;99.90
13606;DHT22;6874;52.084;5.090;2023-04-03T05:15:11;3.60;99.90
13606;DHT22;6874;52.084;5.090;2023-04-03T05:17:37;3.70;99.90
13606;DHT22;6874;52.084;5.090;2023-04-03T05:20:04;3.60;99.90
13606;DHT22;6874;52.084;5.090;2023-04-03T05:22:30;3.60;99.90
13606;DHT22;6874;52.084;5.090;2023-04-03T05:24:55;3.60;99.90
13606;DHT22;6874;52.084;5.090;2023-04-03T05:27:21;3.50;99.90
13606;DHT22;6874;52.084;5.090;2023-04-03T05:29:49;3.50;99.90
13606;DHT22;6874;52.084;5.090;2023-04-03T05:32:15;3.70;99.90
13606;DHT22;6874;52.084;5.090;2023-04-03T05:34:41;3.50;99.90
13606;DHT22;6874;52.084;5.090;2023-04-03T05:37:06;3.50;99.90
13606;DHT22;6874;52.084;5.090;2023-04-03T05:39:32;3.50;99.90
13606;DHT22;6874;52.084;5.090;2023-04-03T05:41:58;3.50;99.90
13606;DHT22;6874;52.084;5.090;2023-04-03T05:44:23;3.50;99.90
13606;DHT22;6874;52.084;5.090;2023-04-03T05:46:49;3.50;99.90
13606;DHT22;6874;52.084;5.090;2023-04-03T05:49:15;3.50;99.90
13606;DHT22;6874;52.084;5.090;2023-04-03T05:51:40;3.50;99.90
13606;DHT22;6874;52.084;5.090;2023-04-03T05:54:16;3.50;99.90
13606;DHT22;6874;52.084;5.090;2023-04-03T05:56:43;3.50;99.90
13606;DHT22;6874;52.084;5.090;2023-04-03T05:59:08;3.40;99.90
13606;DHT22;6874;52.084;5.090;2023-04-03T06:01:34;3.40;99.90
13606;DHT22;6874;52.084;5.090;2023-04-03T06:04:00;3.40;99.90
13606;DHT22;6874;52.084;5.090;2023-04-03T06:06:26;3.40;99.90
13606;DHT22;6874;52.084;5.090;2023-04-03T06:09:07;3.40;99.90
13606;DHT22;6874;52.084;5.090;2023-04-03T06:11:33;3.40;99.90
13606;DHT22;6874;52.084;5.090;2023-04-03T06:13:59;3.40;99.90
13606;DHT22;6874;52.084;5.090;2023-04-03T06:16:24;3.40;99.90
13606;DHT22;6874;52.084;5.090;2023-04-03T06:18:50;3.40;99.90
13606;DHT22;6874;52.084;5.090;2023-04-03T06:21:15;3.40;99.90
13606;DHT22;6874;52.084;5.090;2023-04-03T06:23:41;3.40;99.90
13606;DHT22;6874;52.084;5.090;2023-04-03T06:26:07;3.40;99.90
13606;DHT22;6874;52.084;5.090;2023-04-03T06:28:32;3.40;99.90
13606;DHT22;6874;52.084;5.090;2023-04-03T06:30:58;3.30;99.90
13606;DHT22;6874;52.084;5.090;2023-04-03T06:33:23;3.30;99.90
13606;DHT22;6874;52.084;5.090;2023-04-03T06:35:49;3.30;99.90
13606;DHT22;6874;52.084;5.090;2023-04-03T06:38:16;3.30;99.90
13606;DHT22;6874;52.084;5.090;2023-04-03T06:40:41;3.30;99.90
13606;DHT22;6874;52.084;5.090;2023-04-03T06:43:07;3.30;99.90
13606;DHT22;6874;52.084;5.090;2023-04-03T06:45:32;3.30;99.90
13606;DHT22;6874;52.084;5.090;2023-04-03T06:47:58;3.30;99.90
13606;DHT22;6874;52.084;5.090;2023-04-03T06:50:24;3.30;99.90
13606;DHT22;6874;52.084;5.090;2023-04-03T06:52:50;3.30;99.90
13606;DHT22;6874;52.084;5.090;2023-04-03T06:55:17;3.30;99.90
13606;DHT22;6874;52.084;5.090;2023-04-03T06:57:42;3.30;99.90
13606;DHT22;6874;52.084;5.090;2023-04-03T07:00:08;3.30;99.90
13606;DHT22;6874;52.084;5.090;2023-04-03T07:02:36;3.30;99.90
13606;DHT22;6874;52.084;5.090;2023-04-03T07:05:02;3.30;99.90
13606;DHT22;6874;52.084;5.090;2023-04-03T07:07:28;3.30;99.90
13606;DHT22;6874;52.084;5.090;2023-04-03T07:09:53;3.30;99.90
13606;DHT22;6874;52.084;5.090;2023-04-03T07:12:19;3.30;99.90
13606;DHT22;6874;52.084;5.090;2023-04-03T07:14:45;3.30;99.90
13606;DHT22;6874;52.084;5.090;2023-04-03T07:17:10;3.30;99.90
13606;DHT22;6874;52.084;5.090;2023-04-03T07:19:36;3.30;99.90
13606;DHT22;6874;52.084;5.090;2023-04-03T07:22:02;3.30;99.90
13606;DHT22;6874;52.084;5.090;2023-04-03T07:24:27;3.30;99.90
13606;DHT22;6874;52.084;5.090;2023-04-03T07:26:53;3.30;99.90
13606;DHT22;6874;52.084;5.090;2023-04-03T07:29:19;3.30;99.90
13606;DHT22;6874;52.084;5.090;2023-04-03T07:31:47;3.40;99.90
13606;DHT22;6874;52.084;5.090;2023-04-03T07:34:13;3.30;99.90
13606;DHT22;6874;52.084;5.090;2023-04-03T07:36:38;3.30;99.90
13606;DHT22;6874;52.084;5.090;2023-04-03T07:39:04;3.30;99.90
13606;DHT22;6874;52.084;5.090;2023-04-03T07:41:32;3.40;99.90
13606;DHT22;6874;52.084;5.090;2023-04-03T07:43:58;3.40;99.90
13606;DHT22;6874;52.084;5.090;2023-04-03T07:46:24;3.30;99.90
13606;DHT22;6874;52.084;5.090;2023-04-03T07:48:49;3.40;99.90
13606;DHT22;6874;52.084;5.090;2023-04-03T07:51:15;3.40;99.90
13606;DHT22;6874;52.084;5.090;2023-04-03T07:53:41;3.40;99.90
13606;DHT22;6874;52.084;5.090;2023-04-03T07:56:07;3.40;99.90
13606;DHT22;6874;52.084;5.090;2023-04-03T07:58:33;3.40;99.90
13606;DHT22;6874;52.084;5.090;2023-04-03T08:00:59;3.50;99.90
13606;DHT22;6874;52.084;5.090;2023-04-03T08:03:25;3.50;99.90
13606;DHT22;6874;52.084;5.090;2023-04-03T08:05:51;3.50;99.90
13606;DHT22;6874;52.084;5.090;2023-04-03T08:08:20;3.50;99.90
13606;DHT22;6874;52.084;5.090;2023-04-03T08:10:53;3.50;99.90
13606;DHT22;6874;52.084;5.090;2023-04-03T08:13:20;3.60;99.90
13606;DHT22;6874;52.084;5.090;2023-04-03T08:15:46;3.50;99.90
13606;DHT22;6874;52.084;5.090;2023-04-03T08:18:12;3.50;99.90
13606;DHT22;6874;52.084;5.090;2023-04-03T08:20:38;3.60;99.90
13606;DHT22;6874;52.084;5.090;2023-04-03T08:23:06;3.50;99.90
13606;DHT22;6874;52.084;5.090;2023-04-03T08:25:32;3.60;99.90
13606;DHT22;6874;52.084;5.090;2023-04-03T08:27:58;3.60;99.90
13606;DHT22;6874;52.084;5.090;2023-04-03T08:30:24;3.60;99.90
13606;DHT22;6874;52.084;5.090;2023-04-03T08:32:49;3.60;99.90
13606;DHT22;6874;52.084;5.090;2023-04-03T08:35:15;3.60;99.90
13606;DHT22;6874;52.084;5.090;2023-04-03T08:37:41;3.70;99.90
13606;DHT22;6874;52.084;5.090;2023-04-03T08:40:10;3.70;99.90
13606;DHT22;6874;52.084;5.090;2023-04-03T08:45:13;3.70;99.90
13606;DHT22;6874;52.084;5.090;2023-04-03T08:47:55;3.70;99.90
13606;DHT22;6874;52.084;5.090;2023-04-03T08:50:29;3.70;99.90
13606;DHT22;6874;52.084;5.090;2023-04-03T08:52:58;3.80;99.90
13606;DHT22;6874;52.084;5.090;2023-04-03T08:55:31;3.80;99.90
13606;DHT22;6874;52.084;5.090;2023-04-03T08:58:09;3.80;99.90
13606;DHT22;6874;52.084;5.090;2023-04-03T09:01:03;3.80;99.90
13606;DHT22;6874;52.084;5.090;2023-04-03T09:03:36;3.90;99.90
13606;DHT22;6874;52.084;5.090;2023-04-03T09:06:14;3.90;99.90
13606;DHT22;6874;52.084;5.090;2023-04-03T09:08:46;3.90;99.90
13606;DHT22;6874;52.084;5.090;2023-04-03T09:11:27;3.90;99.90
13606;DHT22;6874;52.084;5.090;2023-04-03T09:14:14;4.00;99.90
13606;DHT22;6874;52.084;5.090;2023-04-03T09:17:07;4.00;99.90
13606;DHT22;6874;52.084;5.090;2023-04-03T09:19:45;4.00;99.90
13606;DHT22;6874;52.084;5.090;2023-04-03T09:22:24;4.10;99.90
13606;DHT22;6874;52.084;5.090;2023-04-03T09:25:10;4.10;99.90
13606;DHT22;6874;52.084;5.090;2023-04-03T09:27:36;4.10;99.90
13606;DHT22;6874;52.084;5.090;2023-04-03T09:30:01;4.10;99.90
13606;DHT22;6874;52.084;5.090;2023-04-03T09:32:30;4.10;99.90
13606;DHT22;6874;52.084;5.090;2023-04-03T09:35:25;4.30;99.90
13606;DHT22;6874;52.084;5.090;2023-04-03T09:37:52;4.20;99.90
13606;DHT22;6874;52.084;5.090;2023-04-03T09:40:30;4.20;99.90
13606;DHT22;6874;52.084;5.090;2023-04-03T09:42:59;4.30;99.90
13606;DHT22;6874;52.084;5.090;2023-04-03T09:45:32;4.30;99.90
13606;DHT22;6874;52.084;5.090;2023-04-03T09:48:14;4.40;99.90
13606;DHT22;6874;52.084;5.090;2023-04-03T09:53:33;4.40;99.90
13606;DHT22;6874;52.084;5.090;2023-04-03T09:56:02;4.50;99.90
13606;DHT22;6874;52.084;5.090;2023-04-03T10:04:18;4.60;99.90
13606;DHT22;6874;52.084;5.090;2023-04-03T10:06:46;4.80;99.90
13606;DHT22;6874;52.084;5.090;2023-04-03T10:09:28;5.00;99.90
13606;DHT22;6874;52.084;5.090;2023-04-03T10:12:06;5.20;99.90
13606;DHT22;6874;52.084;5.090;2023-04-03T10:14:56;5.50;99.90
13606;DHT22;6874;52.084;5.090;2023-04-03T10:18:05;5.70;99.90
13606;DHT22;6874;52.084;5.090;2023-04-03T10:20:46;6.00;99.90
13606;DHT22;6874;52.084;5.090;2023-04-03T10:23:17;6.30;99.90
13606;DHT22;6874;52.084;5.090;2023-04-03T10:29:02;6.90;99.90
13606;DHT22;6874;52.084;5.090;2023-04-03T10:31:37;7.00;99.90
13606;DHT22;6874;52.084;5.090;2023-04-03T10:34:23;7.20;99.90
13606;DHT22;6874;52.084;5.090;2023-04-03T10:40:01;7.70;99.90
13606;DHT22;6874;52.084;5.090;2023-04-03T10:42:49;7.80;99.90
13606;DHT22;6874;52.084;5.090;2023-04-03T10:54:00;8.60;99.90
13606;DHT22;6874;52.084;5.090;2023-04-03T10:56:39;8.70;99.90
13606;DHT22;6874;52.084;5.090;2023-04-03T11:04:49;9.30;99.90
13606;DHT22;6874;52.084;5.090;2023-04-03T11:07:21;9.40;99.90
13606;DHT22;6874;52.084;5.090;2023-04-03T11:09:52;9.60;99.90
13606;DHT22;6874;52.084;5.090;2023-04-03T11:12:33;9.70;99.90
13606;DHT22;6874;52.084;5.090;2023-04-03T11:15:02;9.80;99.90
13606;DHT22;6874;52.084;5.090;2023-04-03T11:17:36;10.00;99.90
13606;DHT22;6874;52.084;5.090;2023-04-03T11:20:17;10.10;99.90
13606;DHT22;6874;52.084;5.090;2023-04-03T11:22:54;10.20;99.90
13606;DHT22;6874;52.084;5.090;2023-04-03T11:25:25;10.40;99.90
13606;DHT22;6874;52.084;5.090;2023-04-03T11:27:59;10.40;99.90
13606;DHT22;6874;52.084;5.090;2023-04-03T11:36:48;10.80;99.90
13606;DHT22;6874;52.084;5.090;2023-04-03T11:39:33;10.90;99.90
13606;DHT22;6874;52.084;5.090;2023-04-03T11:42:24;11.10;99.90
13606;DHT22;6874;52.084;5.090;2023-04-03T11:47:56;11.20;99.90
13606;DHT22;6874;52.084;5.090;2023-04-03T12:08:46;11.50;99.90
13606;DHT22;6874;52.084;5.090;2023-04-03T12:13:42;11.60;99.90
13606;DHT22;6874;52.084;5.090;2023-04-03T12:19:27;11.80;99.90
13606;DHT22;6874;52.084;5.090;2023-04-03T12:24:52;11.80;99.90
13606;DHT22;6874;52.084;5.090;2023-04-03T12:30:18;11.90;99.90
13606;DHT22;6874;52.084;5.090;2023-04-03T12:32:57;11.90;99.90
13606;DHT22;6874;52.084;5.090;2023-04-03T12:46:03;12.00;99.90
13606;DHT22;6874;52.084;5.090;2023-04-03T12:48:31;12.10;99.90
13606;DHT22;6874;52.084;5.090;2023-04-03T12:50:58;12.10;99.90
13606;DHT22;6874;52.084;5.090;2023-04-03T12:53:33;12.10;99.90
13606;DHT22;6874;52.084;5.090;2023-04-03T12:56:25;12.10;99.90
13606;DHT22;6874;52.084;5.090;2023-04-03T12:58:53;12.20;99.90
13606;DHT22;6874;52.084;5.090;2023-04-03T13:01:24;12.20;99.90
13606;DHT22;6874;52.084;5.090;2023-04-03T13:03:56;12.20;99.90
13606;DHT22;6874;52.084;5.090;2023-04-03T13:08:57;12.30;99.90
13606;DHT22;6874;52.084;5.090;2023-04-03T13:11:35;12.30;99.90
13606;DHT22;6874;52.084;5.090;2023-04-03T13:14:15;12.30;99.90
13606;DHT22;6874;52.084;5.090;2023-04-03T13:16:41;12.40;99.90
13606;DHT22;6874;52.084;5.090;2023-04-03T13:19:16;12.40;99.90
13606;DHT22;6874;52.084;5.090;2023-04-03T13:21:42;12.40;99.90
13606;DHT22;6874;52.084;5.090;2023-04-03T13:24:09;12.50;99.90
13606;DHT22;6874;52.084;5.090;2023-04-03T13:26:36;12.40;99.90
13606;DHT22;6874;52.084;5.090;2023-04-03T13:29:05;12.40;99.90
13606;DHT22;6874;52.084;5.090;2023-04-03T13:31:36;12.50;99.90
13606;DHT22;6874;52.084;5.090;2023-04-03T13:36:37;12.50;99.90
13606;DHT22;6874;52.084;5.090;2023-04-03T13:39:07;12.60;99.90
13606;DHT22;6874;52.084;5.090;2023-04-03T13:41:55;12.60;99.90
13606;DHT22;6874;52.084;5.090;2023-04-03T13:46:55;12.70;99.90
13606;DHT22;6874;52.084;5.090;2023-04-03T13:49:45;12.70;99.90
13606;DHT22;6874;52.084;5.090;2023-04-03T13:52:33;12.70;99.90
13606;DHT22;6874;52.084;5.090;2023-04-03T13:55:31;12.70;99.90
13606;DHT22;6874;52.084;5.090;2023-04-03T14:00:38;12.70;99.90
13606;DHT22;6874;52.084;5.090;2023-04-03T14:03:42;12.80;99.90
13606;DHT22;6874;52.084;5.090;2023-04-03T14:06:15;12.80;99.90
13606;DHT22;6874;52.084;5.090;2023-04-03T14:08:41;12.80;99.90
13606;DHT22;6874;52.084;5.090;2023-04-03T14:11:22;12.80;99.90
13606;DHT22;6874;52.084;5.090;2023-04-03T14:13:50;12.80;99.90
13606;DHT22;6874;52.084;5.090;2023-04-03T14:16:18;12.80;99.90
13606;DHT22;6874;52.084;5.090;2023-04-03T14:18:45;12.80;99.90
13606;DHT22;6874;52.084;5.090;2023-04-03T14:21:13;12.80;99.90
13606;DHT22;6874;52.084;5.090;2023-04-03T14:23:39;12.80;99.90
13606;DHT22;6874;52.084;5.090;2023-04-03T14:26:14;12.80;99.90
13606;DHT22;6874;52.084;5.090;2023-04-03T14:28:42;12.80;99.90
13606;DHT22;6874;52.084;5.090;2023-04-03T14:31:10;12.80;99.90
13606;DHT22;6874;52.084;5.090;2023-04-03T14:33:36;12.90;99.90
13606;DHT22;6874;52.084;5.090;2023-04-03T14:36:12;12.90;99.90
13606;DHT22;6874;52.084;5.090;2023-04-03T14:38:39;12.90;99.90
13606;DHT22;6874;52.084;5.090;2023-04-03T14:41:05;12.90;99.90
13606;DHT22;6874;52.084;5.090;2023-04-03T14:43:31;13.00;99.90
13606;DHT22;6874;52.084;5.090;2023-04-03T14:45:56;13.00;99.90
13606;DHT22;6874;52.084;5.090;2023-04-03T14:48:26;13.00;99.90
13606;DHT22;6874;52.084;5.090;2023-04-03T14:50:52;13.00;99.90
13606;DHT22;6874;52.084;5.090;2023-04-03T14:53:19;13.00;99.90
13606;DHT22;6874;52.084;5.090;2023-04-03T14:55:48;13.00;99.90
13606;DHT22;6874;52.084;5.090;2023-04-03T14:58:15;13.10;99.90
13606;DHT22;6874;52.084;5.090;2023-04-03T15:00:41;13.10;99.90
13606;DHT22;6874;52.084;5.090;2023-04-03T15:03:20;13.10;99.90
13606;DHT22;6874;52.084;5.090;2023-04-03T15:05:47;13.00;99.90
13606;DHT22;6874;52.084;5.090;2023-04-03T15:08:22;13.00;99.90
13606;DHT22;6874;52.084;5.090;2023-04-03T15:10:49;13.00;99.90
13606;DHT22;6874;52.084;5.090;2023-04-03T15:13:15;13.00;99.90
13606;DHT22;6874;52.084;5.090;2023-04-03T15:15:41;13.00;99.90
13606;DHT22;6874;52.084;5.090;2023-04-03T15:18:10;13.10;99.90
13606;DHT22;6874;52.084;5.090;2023-04-03T15:20:39;13.10;99.90
13606;DHT22;6874;52.084;5.090;2023-04-03T15:23:05;13.10;99.90
13606;DHT22;6874;52.084;5.090;2023-04-03T15:25:32;13.10;99.90
13606;DHT22;6874;52.084;5.090;2023-04-03T15:27:58;13.10;99.90
13606;DHT22;6874;52.084;5.090;2023-04-03T15:30:24;13.20;99.90
13606;DHT22;6874;52.084;5.090;2023-04-03T15:32:50;13.20;99.90
13606;DHT22;6874;52.084;5.090;2023-04-03T15:35:15;13.20;99.90
13606;DHT22;6874;52.084;5.090;2023-04-03T15:37:41;13.20;99.90
13606;DHT22;6874;52.084;5.090;2023-04-03T15:40:08;13.20;99.90
13606;DHT22;6874;52.084;5.090;2023-04-03T15:42:34;13.20;99.90
13606;DHT22;6874;52.084;5.090;2023-04-03T15:44:59;13.20;99.90
13606;DHT22;6874;52.084;5.090;2023-04-03T15:47:26;13.20;99.90
13606;DHT22;6874;52.084;5.090;2023-04-03T15:49:53;13.30;99.90
13606;DHT22;6874;52.084;5.090;2023-04-03T15:52:18;13.30;99.90
13606;DHT22;6874;52.084;5.090;2023-04-03T15:54:44;13.30;99.90
13606;DHT22;6874;52.084;5.090;2023-04-03T15:57:10;13.30;99.90
13606;DHT22;6874;52.084;5.090;2023-04-03T15:59:36;13.20;99.90
13606;DHT22;6874;52.084;5.090;2023-04-03T16:02:04;13.20;99.90
13606;DHT22;6874;52.084;5.090;2023-04-03T16:04:32;13.20;99.90
13606;DHT22;6874;52.084;5.090;2023-04-03T16:07:03;13.10;99.90
13606;DHT22;6874;52.084;5.090;2023-04-03T16:09:29;13.10;99.90
13606;DHT22;6874;52.084;5.090;2023-04-03T16:11:55;13.10;99.90
13606;DHT22;6874;52.084;5.090;2023-04-03T16:14:21;13.10;99.90
13606;DHT22;6874;52.084;5.090;2023-04-03T16:16:47;13.00;99.90
13606;DHT22;6874;52.084;5.090;2023-04-03T16:19:13;12.90;99.90
13606;DHT22;6874;52.084;5.090;2023-04-03T16:21:38;12.90;99.90
13606;DHT22;6874;52.084;5.090;2023-04-03T16:24:04;12.90;99.90
13606;DHT22;6874;52.084;5.090;2023-04-03T16:26:31;12.80;99.90
13606;DHT22;6874;52.084;5.090;2023-04-03T16:28:57;12.90;99.90
13606;DHT22;6874;52.084;5.090;2023-04-03T16:31:23;12.80;99.90
13606;DHT22;6874;52.084;5.090;2023-04-03T16:33:50;12.80;99.90
13606;DHT22;6874;52.084;5.090;2023-04-03T16:36:15;12.70;99.90
13606;DHT22;6874;52.084;5.090;2023-04-03T16:38:41;12.70;99.90
13606;DHT22;6874;52.084;5.090;2023-04-03T16:41:06;12.60;99.90
13606;DHT22;6874;52.084;5.090;2023-04-03T16:43:33;12.60;99.90
13606;DHT22;6874;52.084;5.090;2023-04-03T16:45:59;12.50;99.90
13606;DHT22;6874;52.084;5.090;2023-04-03T16:48:24;12.40;99.90
13606;DHT22;6874;52.084;5.090;2023-04-03T16:50:50;12.40;99.90
13606;DHT22;6874;52.084;5.090;2023-04-03T16:53:22;12.40;99.90
13606;DHT22;6874;52.084;5.090;2023-04-03T16:55:48;12.30;99.90
13606;DHT22;6874;52.084;5.090;2023-04-03T16:58:15;12.20;99.90
13606;DHT22;6874;52.084;5.090;2023-04-03T17:00:41;12.20;99.90
13606;DHT22;6874;52.084;5.090;2023-04-03T17:03:07;12.20;99.90
13606;DHT22;6874;52.084;5.090;2023-04-03T17:05:32;12.20;99.90
13606;DHT22;6874;52.084;5.090;2023-04-03T17:07:58;12.10;99.90
13606;DHT22;6874;52.084;5.090;2023-04-03T17:10:24;12.00;99.90
13606;DHT22;6874;52.084;5.090;2023-04-03T17:12:50;12.00;99.90
13606;DHT22;6874;52.084;5.090;2023-04-03T17:15:16;11.90;99.90
13606;DHT22;6874;52.084;5.090;2023-04-03T17:17:41;11.80;99.90
13606;DHT22;6874;52.084;5.090;2023-04-03T17:20:07;11.80;99.90
13606;DHT22;6874;52.084;5.090;2023-04-03T17:22:34;11.70;99.90
13606;DHT22;6874;52.084;5.090;2023-04-03T17:25:00;11.60;99.90
13606;DHT22;6874;52.084;5.090;2023-04-03T17:27:25;11.60;99.90
13606;DHT22;6874;52.084;5.090;2023-04-03T17:29:51;11.50;99.90
13606;DHT22;6874;52.084;5.090;2023-04-03T17:32:17;11.50;99.90
13606;DHT22;6874;52.084;5.090;2023-04-03T17:34:45;11.40;99.90
13606;DHT22;6874;52.084;5.090;2023-04-03T17:37:11;11.40;99.90
13606;DHT22;6874;52.084;5.090;2023-04-03T17:39:36;11.30;99.90
13606;DHT22;6874;52.084;5.090;2023-04-03T17:42:02;11.20;99.90
13606;DHT22;6874;52.084;5.090;2023-04-03T17:44:28;11.20;99.90
13606;DHT22;6874;52.084;5.090;2023-04-03T17:46:53;11.10;99.90